sensor_id;sensor_type;location;lat;lon;timestamp;pressure;altitude;pressure_sealevel;temperature;humidity
60089;BME280;45961;53.574;55.878;2024-03-08T00:00:35;100162.59;;;-17.85;73.82
60089;BME280;45961;53.574;55.878;2024-03-08T00:01:35;100161.88;;;-17.98;73.59
60089;BME280;45961;53.574;55.878;2024-03-08T00:02:36;100164.16;;;-18.07;73.54
60089;BME280;45961;53.574;55.878;2024-03-08T00:03:37;100172.59;;;-18.12;73.72
60089;BME280;45961;53.574;55.878;2024-03-08T00:04:38;100172.88;;;-18.30;73.57
60089;BME280;45961;53.574;55.878;2024-03-08T00:05:39;100171.81;;;-18.32;73.57
60089;BME280;45961;53.574;55.878;2024-03-08T00:06:40;100172.50;;;-18.40;73.60
60089;BME280;45961;53.574;55.878;2024-03-08T00:07:41;100173.91;;;-18.35;74.04
60089;BME280;45961;53.574;55.878;2024-03-08T00:08:42;100169.69;;;-18.36;73.85
60089;BME280;45961;53.574;55.878;2024-03-08T00:09:43;100172.84;;;-18.37;74.01
60089;BME280;45961;53.574;55.878;2024-03-08T00:10:43;100167.75;;;-18.32;74.00
60089;BME280;45961;53.574;55.878;2024-03-08T00:11:44;100174.28;;;-18.32;74.02
60089;BME280;45961;53.574;55.878;2024-03-08T00:12:45;100167.72;;;-18.39;73.98
60089;BME280;45961;53.574;55.878;2024-03-08T00:13:48;100165.97;;;-18.33;74.24
60089;BME280;45961;53.574;55.878;2024-03-08T00:14:49;100164.06;;;-18.21;74.20
60089;BME280;45961;53.574;55.878;2024-03-08T00:15:49;100161.31;;;-18.10;74.35
60089;BME280;45961;53.574;55.878;2024-03-08T00:16:51;100156.38;;;-18.10;74.22
60089;BME280;45961;53.574;55.878;2024-03-08T00:17:53;100160.44;;;-18.10;74.09
60089;BME280;45961;53.574;55.878;2024-03-08T00:18:54;100159.69;;;-18.24;74.03
60089;BME280;45961;53.574;55.878;2024-03-08T00:19:55;100148.78;;;-18.11;74.05
60089;BME280;45961;53.574;55.878;2024-03-08T00:20:55;100158.47;;;-18.13;73.86
60089;BME280;45961;53.574;55.878;2024-03-08T00:21:56;100155.13;;;-18.21;73.68
60089;BME280;45961;53.574;55.878;2024-03-08T00:22:57;100154.75;;;-18.24;73.65
60089;BME280;45961;53.574;55.878;2024-03-08T00:24:00;100160.56;;;-18.23;73.68
60089;BME280;45961;53.574;55.878;2024-03-08T00:25:01;100150.34;;;-18.19;73.59
60089;BME280;45961;53.574;55.878;2024-03-08T00:26:03;100140.50;;;-18.05;73.49
60089;BME280;45961;53.574;55.878;2024-03-08T00:27:04;100137.34;;;-17.97;73.43
60089;BME280;45961;53.574;55.878;2024-03-08T00:28:06;100138.75;;;-17.99;73.36
60089;BME280;45961;53.574;55.878;2024-03-08T00:29:07;100133.31;;;-17.96;73.33
60089;BME280;45961;53.574;55.878;2024-03-08T00:30:08;100129.63;;;-17.92;73.34
60089;BME280;45961;53.574;55.878;2024-03-08T00:31:09;100140.53;;;-17.98;73.60
60089;BME280;45961;53.574;55.878;2024-03-08T00:32:10;100136.66;;;-17.96;73.75
60089;BME280;45961;53.574;55.878;2024-03-08T00:33:11;100140.53;;;-17.90;73.72
60089;BME280;45961;53.574;55.878;2024-03-08T00:34:12;100143.00;;;-17.98;73.75
60089;BME280;45961;53.574;55.878;2024-03-08T00:35:13;100144.75;;;-17.97;73.87
60089;BME280;45961;53.574;55.878;2024-03-08T00:36:13;100136.69;;;-17.88;74.03
60089;BME280;45961;53.574;55.878;2024-03-08T00:37:14;100138.06;;;-17.90;73.87
60089;BME280;45961;53.574;55.878;2024-03-08T00:38:15;100132.59;;;-17.95;73.83
60089;BME280;45961;53.574;55.878;2024-03-08T00:39:16;100136.16;;;-17.79;73.86
60089;BME280;45961;53.574;55.878;2024-03-08T00:40:16;100122.00;;;-17.65;73.91
60089;BME280;45961;53.574;55.878;2024-03-08T00:41:18;100122.72;;;-17.66;73.68
60089;BME280;45961;53.574;55.878;2024-03-08T00:42:19;100126.25;;;-17.64;73.56
60089;BME280;45961;53.574;55.878;2024-03-08T00:43:20;100129.97;;;-17.68;73.46
60089;BME280;45961;53.574;55.878;2024-03-08T00:44:21;100116.38;;;-17.79;73.53
60089;BME280;45961;53.574;55.878;2024-03-08T00:45:21;100119.75;;;-17.64;73.64
60089;BME280;45961;53.574;55.878;2024-03-08T00:46:24;100116.53;;;-17.70;73.68
60089;BME280;45961;53.574;55.878;2024-03-08T00:47:24;100121.31;;;-17.86;73.59
60089;BME280;45961;53.574;55.878;2024-03-08T00:48:25;100114.28;;;-17.76;73.72
60089;BME280;45961;53.574;55.878;2024-03-08T00:49:26;100113.56;;;-17.67;73.46
60089;BME280;45961;53.574;55.878;2024-03-08T00:50:27;100115.88;;;-17.76;73.46
60089;BME280;45961;53.574;55.878;2024-03-08T00:51:27;100122.72;;;-17.88;73.58
60089;BME280;45961;53.574;55.878;2024-03-08T00:52:28;100129.41;;;-17.94;73.41
60089;BME280;45961;53.574;55.878;2024-03-08T00:53:29;100131.03;;;-17.87;73.61
60089;BME280;45961;53.574;55.878;2024-03-08T00:54:30;100129.28;;;-17.88;73.65
60089;BME280;45961;53.574;55.878;2024-03-08T00:55:31;100119.19;;;-17.83;73.52
60089;BME280;45961;53.574;55.878;2024-03-08T00:56:32;100131.03;;;-17.87;73.69
60089;BME280;45961;53.574;55.878;2024-03-08T00:57:34;100128.34;;;-17.89;74.00
60089;BME280;45961;53.574;55.878;2024-03-08T00:58:38;100126.63;;;-17.83;73.68
60089;BME280;45961;53.574;55.878;2024-03-08T00:59:39;100119.91;;;-17.91;73.73
60089;BME280;45961;53.574;55.878;2024-03-08T01:00:39;100125.53;;;-17.85;73.64
60089;BME280;45961;53.574;55.878;2024-03-08T01:01:40;100132.09;;;-17.92;73.76
60089;BME280;45961;53.574;55.878;2024-03-08T01:02:41;100127.81;;;-17.94;73.73
60089;BME280;45961;53.574;55.878;2024-03-08T01:03:45;100139.06;;;-18.10;73.71
60089;BME280;45961;53.574;55.878;2024-03-08T01:04:46;100133.44;;;-18.02;73.64
60089;BME280;45961;53.574;55.878;2024-03-08T01:05:47;100128.69;;;-18.07;73.81
60089;BME280;45961;53.574;55.878;2024-03-08T01:06:48;100128.16;;;-17.98;73.56
60089;BME280;45961;53.574;55.878;2024-03-08T01:07:49;100129.38;;;-18.15;73.49
60089;BME280;45961;53.574;55.878;2024-03-08T01:08:50;100127.81;;;-18.08;73.70
60089;BME280;45961;53.574;55.878;2024-03-08T01:09:53;100129.94;;;-17.97;73.60
60089;BME280;45961;53.574;55.878;2024-03-08T01:10:54;100132.59;;;-17.95;73.75
60089;BME280;45961;53.574;55.878;2024-03-08T01:11:55;100129.03;;;-17.97;73.62
60089;BME280;45961;53.574;55.878;2024-03-08T01:12:57;100127.66;;;-17.95;73.65
60089;BME280;45961;53.574;55.878;2024-03-08T01:13:59;100126.97;;;-17.87;73.88
60089;BME280;45961;53.574;55.878;2024-03-08T01:15:00;100117.25;;;-17.85;73.86
60089;BME280;45961;53.574;55.878;2024-03-08T01:16:01;100122.38;;;-17.91;73.95
60089;BME280;45961;53.574;55.878;2024-03-08T01:17:02;100107.53;;;-17.91;73.85
60089;BME280;45961;53.574;55.878;2024-03-08T01:18:03;100126.03;;;-18.02;74.18
60089;BME280;45961;53.574;55.878;2024-03-08T01:19:05;100122.16;;;-18.07;74.15
60089;BME280;45961;53.574;55.878;2024-03-08T01:20:06;100124.66;;;-17.92;74.28
60089;BME280;45961;53.574;55.878;2024-03-08T01:21:07;100113.91;;;-17.86;74.43
60089;BME280;45961;53.574;55.878;2024-03-08T01:22:08;100118.84;;;-17.79;74.36
60089;BME280;45961;53.574;55.878;2024-03-08T01:23:08;100123.63;;;-17.80;74.26
60089;BME280;45961;53.574;55.878;2024-03-08T01:24:09;100124.84;;;-17.70;74.43
60089;BME280;45961;53.574;55.878;2024-03-08T01:25:10;100116.91;;;-17.74;74.34
60089;BME280;45961;53.574;55.878;2024-03-08T01:26:11;100106.66;;;-17.63;74.41
60089;BME280;45961;53.574;55.878;2024-03-08T01:27:11;100116.56;;;-17.56;74.32
60089;BME280;45961;53.574;55.878;2024-03-08T01:28:12;100111.78;;;-17.61;74.21
60089;BME280;45961;53.574;55.878;2024-03-08T01:29:13;100111.75;;;-17.69;74.29
60089;BME280;45961;53.574;55.878;2024-03-08T01:30:14;100108.78;;;-17.66;74.22
60089;BME280;45961;53.574;55.878;2024-03-08T01:31:17;100105.06;;;-17.77;74.08
60089;BME280;45961;53.574;55.878;2024-03-08T01:32:18;100102.63;;;-17.84;74.14
60089;BME280;45961;53.574;55.878;2024-03-08T01:33:20;100093.44;;;-17.78;74.08
60089;BME280;45961;53.574;55.878;2024-03-08T01:34:23;100107.53;;;-17.98;73.87
60089;BME280;45961;53.574;55.878;2024-03-08T01:35:23;100100.63;;;-17.94;74.21
60089;BME280;45961;53.574;55.878;2024-03-08T01:36:24;100099.75;;;-17.94;74.14
60089;BME280;45961;53.574;55.878;2024-03-08T01:37:25;100099.56;;;-18.03;74.06
60089;BME280;45961;53.574;55.878;2024-03-08T01:38:26;100094.13;;;-17.86;74.25
60089;BME280;45961;53.574;55.878;2024-03-08T01:39:27;100088.81;;;-17.89;74.09
60089;BME280;45961;53.574;55.878;2024-03-08T01:40:28;100091.84;;;-17.84;74.05
60089;BME280;45961;53.574;55.878;2024-03-08T01:41:30;100089.91;;;-17.87;74.08
60089;BME280;45961;53.574;55.878;2024-03-08T01:42:30;100091.47;;;-17.73;73.91
60089;BME280;45961;53.574;55.878;2024-03-08T01:43:31;100091.31;;;-17.82;73.95
60089;BME280;45961;53.574;55.878;2024-03-08T01:44:32;100097.81;;;-17.89;73.92
60089;BME280;45961;53.574;55.878;2024-03-08T01:45:33;100087.25;;;-17.74;73.96
60089;BME280;45961;53.574;55.878;2024-03-08T01:46:34;100082.66;;;-17.71;73.92
60089;BME280;45961;53.574;55.878;2024-03-08T01:47:35;100080.00;;;-17.94;73.73
60089;BME280;45961;53.574;55.878;2024-03-08T01:48:37;100087.59;;;-17.85;73.89
60089;BME280;45961;53.574;55.878;2024-03-08T01:49:38;100084.09;;;-17.80;73.91
60089;BME280;45961;53.574;55.878;2024-03-08T01:50:39;100087.59;;;-17.78;74.02
60089;BME280;45961;53.574;55.878;2024-03-08T01:51:41;100075.94;;;-17.72;73.90
60089;BME280;45961;53.574;55.878;2024-03-08T01:52:42;100071.69;;;-17.73;73.88
60089;BME280;45961;53.574;55.878;2024-03-08T01:53:44;100080.34;;;-17.77;74.05
60089;BME280;45961;53.574;55.878;2024-03-08T01:54:46;100066.25;;;-17.78;74.15
60089;BME280;45961;53.574;55.878;2024-03-08T01:55:47;100074.69;;;-17.69;74.10
60089;BME280;45961;53.574;55.878;2024-03-08T01:56:48;100074.53;;;-17.77;74.01
60089;BME280;45961;53.574;55.878;2024-03-08T01:57:49;100071.88;;;-17.72;74.23
60089;BME280;45961;53.574;55.878;2024-03-08T01:58:50;100075.22;;;-17.71;74.01
60089;BME280;45961;53.574;55.878;2024-03-08T01:59:51;100063.59;;;-17.72;73.97
60089;BME280;45961;53.574;55.878;2024-03-08T02:00:54;100072.56;;;-17.73;73.94
60089;BME280;45961;53.574;55.878;2024-03-08T02:01:56;100067.81;;;-17.71;73.84
60089;BME280;45961;53.574;55.878;2024-03-08T02:03:01;100063.25;;;-17.75;73.85
60089;BME280;45961;53.574;55.878;2024-03-08T02:04:02;100067.47;;;-17.74;73.90
60089;BME280;45961;53.574;55.878;2024-03-08T02:05:02;100064.25;;;-17.73;73.94
60089;BME280;45961;53.574;55.878;2024-03-08T02:06:03;100063.22;;;-17.68;73.92
60089;BME280;45961;53.574;55.878;2024-03-08T02:07:05;100068.69;;;-17.63;73.81
60089;BME280;45961;53.574;55.878;2024-03-08T02:08:06;100058.09;;;-17.62;73.88
60089;BME280;45961;53.574;55.878;2024-03-08T02:09:08;100055.63;;;-17.62;73.83
60089;BME280;45961;53.574;55.878;2024-03-08T02:10:09;100061.09;;;-17.65;73.65
60089;BME280;45961;53.574;55.878;2024-03-08T02:11:10;100062.16;;;-17.63;73.77
60089;BME280;45961;53.574;55.878;2024-03-08T02:12:11;100052.09;;;-17.72;73.64
60089;BME280;45961;53.574;55.878;2024-03-08T02:13:13;100057.56;;;-17.67;73.74
60089;BME280;45961;53.574;55.878;2024-03-08T02:14:14;100058.09;;;-17.62;73.76
60089;BME280;45961;53.574;55.878;2024-03-08T02:15:15;100054.91;;;-17.61;73.77
60089;BME280;45961;53.574;55.878;2024-03-08T02:16:21;100046.97;;;-17.59;73.83
60089;BME280;45961;53.574;55.878;2024-03-08T02:17:23;100048.75;;;-17.51;73.92
60089;BME280;45961;53.574;55.878;2024-03-08T02:18:23;100049.09;;;-17.62;73.90
60089;BME280;45961;53.574;55.878;2024-03-08T02:19:24;100048.22;;;-17.62;73.77
60089;BME280;45961;53.574;55.878;2024-03-08T02:20:28;100048.53;;;-17.38;73.93
60089;BME280;45961;53.574;55.878;2024-03-08T02:21:29;100038.13;;;-17.42;73.61
60089;BME280;45961;53.574;55.878;2024-03-08T02:22:31;100048.03;;;-17.42;73.87
60089;BME280;45961;53.574;55.878;2024-03-08T02:23:34;100044.47;;;-17.45;73.91
60089;BME280;45961;53.574;55.878;2024-03-08T02:24:35;100046.59;;;-17.40;73.63
60089;BME280;45961;53.574;55.878;2024-03-08T02:25:36;100046.25;;;-17.51;73.86
60089;BME280;45961;53.574;55.878;2024-03-08T02:26:37;100043.44;;;-17.47;73.96
60089;BME280;45961;53.574;55.878;2024-03-08T02:27:38;100045.72;;;-17.41;73.72
60089;BME280;45961;53.574;55.878;2024-03-08T02:28:39;100040.41;;;-17.30;73.96
60089;BME280;45961;53.574;55.878;2024-03-08T02:29:40;100041.13;;;-17.31;74.01
60089;BME280;45961;53.574;55.878;2024-03-08T02:30:43;100042.16;;;-17.29;74.04
60089;BME280;45961;53.574;55.878;2024-03-08T02:31:43;100039.31;;;-17.25;74.01
60089;BME280;45961;53.574;55.878;2024-03-08T02:32:44;100050.66;;;-17.34;74.20
60089;BME280;45961;53.574;55.878;2024-03-08T02:33:45;100060.03;;;-17.31;74.23
60089;BME280;45961;53.574;55.878;2024-03-08T02:34:48;100054.88;;;-17.26;74.32
60089;BME280;45961;53.574;55.878;2024-03-08T02:35:49;100047.97;;;-17.14;74.24
60089;BME280;45961;53.574;55.878;2024-03-08T02:36:51;100056.13;;;-17.22;74.01
60089;BME280;45961;53.574;55.878;2024-03-08T02:37:52;100052.25;;;-17.34;74.16
60089;BME280;45961;53.574;55.878;2024-03-08T02:38:53;100055.59;;;-17.27;74.10
60089;BME280;45961;53.574;55.878;2024-03-08T02:39:55;100054.53;;;-17.22;74.13
60089;BME280;45961;53.574;55.878;2024-03-08T02:40:56;100061.06;;;-17.22;74.38
60089;BME280;45961;53.574;55.878;2024-03-08T02:41:57;100061.44;;;-17.19;74.26
60089;BME280;45961;53.574;55.878;2024-03-08T02:42:58;100059.97;;;-17.03;74.14
60089;BME280;45961;53.574;55.878;2024-03-08T02:43:58;100049.22;;;-17.10;74.16
60089;BME280;45961;53.574;55.878;2024-03-08T02:45:01;100056.09;;;-17.08;74.08
60089;BME280;45961;53.574;55.878;2024-03-08T02:46:01;100046.56;;;-17.12;74.01
60089;BME280;45961;53.574;55.878;2024-03-08T02:47:02;100051.16;;;-17.08;73.85
60089;BME280;45961;53.574;55.878;2024-03-08T02:48:03;100046.88;;;-17.02;74.18
60089;BME280;45961;53.574;55.878;2024-03-08T02:49:04;100046.53;;;-17.05;74.09
60089;BME280;45961;53.574;55.878;2024-03-08T02:50:06;100045.50;;;-17.14;74.17
60089;BME280;45961;53.574;55.878;2024-03-08T02:51:10;100038.59;;;-17.02;74.16
60089;BME280;45961;53.574;55.878;2024-03-08T02:52:11;100047.59;;;-17.03;74.23
60089;BME280;45961;53.574;55.878;2024-03-08T02:53:12;100037.19;;;-17.07;74.24
60089;BME280;45961;53.574;55.878;2024-03-08T02:54:13;100034.53;;;-17.09;74.13
60089;BME280;45961;53.574;55.878;2024-03-08T02:55:16;100036.63;;;-16.98;74.30
60089;BME280;45961;53.574;55.878;2024-03-08T02:56:16;100030.66;;;-17.07;74.23
60089;BME280;45961;53.574;55.878;2024-03-08T02:57:17;100036.63;;;-16.98;74.22
60089;BME280;45961;53.574;55.878;2024-03-08T02:58:18;100031.28;;;-16.79;74.30
60089;BME280;45961;53.574;55.878;2024-03-08T02:59:19;100031.31;;;-16.94;74.45
60089;BME280;45961;53.574;55.878;2024-03-08T03:00:20;100025.75;;;-16.77;74.57
60089;BME280;45961;53.574;55.878;2024-03-08T03:01:23;100027.09;;;-16.64;74.67
60089;BME280;45961;53.574;55.878;2024-03-08T03:02:24;100021.88;;;-16.75;74.62
60089;BME280;45961;53.574;55.878;2024-03-08T03:03:24;100016.66;;;-16.62;74.73
60089;BME280;45961;53.574;55.878;2024-03-08T03:04:27;100017.50;;;-16.54;74.71
60089;BME280;45961;53.574;55.878;2024-03-08T03:05:28;100010.59;;;-16.57;74.79
60089;BME280;45961;53.574;55.878;2024-03-08T03:06:30;100015.06;;;-16.61;74.74
60089;BME280;45961;53.574;55.878;2024-03-08T03:07:34;100013.19;;;-16.41;74.84
60089;BME280;45961;53.574;55.878;2024-03-08T03:08:35;100006.81;;;-16.39;74.79
60089;BME280;45961;53.574;55.878;2024-03-08T03:09:36;100002.34;;;-16.34;74.69
60089;BME280;45961;53.574;55.878;2024-03-08T03:10:37;100008.34;;;-16.32;74.64
60089;BME280;45961;53.574;55.878;2024-03-08T03:11:38;100001.63;;;-16.33;74.74
60089;BME280;45961;53.574;55.878;2024-03-08T03:12:38;100000.41;;;-16.37;74.65
60089;BME280;45961;53.574;55.878;2024-03-08T03:13:39;100003.66;;;-16.45;74.69
60089;BME280;45961;53.574;55.878;2024-03-08T03:14:42;100010.22;;;-16.53;74.55
60089;BME280;45961;53.574;55.878;2024-03-08T03:15:43;100001.00;;;-16.47;74.44
60089;BME280;45961;53.574;55.878;2024-03-08T03:16:44;100000.41;;;-16.37;74.71
60089;BME280;45961;53.574;55.878;2024-03-08T03:17:49;99999.88;;;-16.34;74.56
60089;BME280;45961;53.574;55.878;2024-03-08T03:18:53;100001.88;;;-16.16;74.49
60089;BME280;45961;53.574;55.878;2024-03-08T03:19:54;100001.59;;;-16.26;74.39
60089;BME280;45961;53.574;55.878;2024-03-08T03:20:56;100009.09;;;-16.40;74.35
60089;BME280;45961;53.574;55.878;2024-03-08T03:21:56;100010.50;;;-16.35;74.45
60089;BME280;45961;53.574;55.878;2024-03-08T03:23:00;100008.41;;;-16.39;74.57
60089;BME280;45961;53.574;55.878;2024-03-08T03:24:04;100007.31;;;-16.34;74.89
60089;BME280;45961;53.574;55.878;2024-03-08T03:25:10;99998.13;;;-16.35;74.87
60089;BME280;45961;53.574;55.878;2024-03-08T03:26:11;100001.81;;;-16.32;74.86
60089;BME280;45961;53.574;55.878;2024-03-08T03:27:13;100001.75;;;-16.25;75.08
60089;BME280;45961;53.574;55.878;2024-03-08T03:28:14;99987.72;;;-16.17;75.08
60089;BME280;45961;53.574;55.878;2024-03-08T03:29:18;99993.66;;;-16.08;75.10
60089;BME280;45961;53.574;55.878;2024-03-08T03:30:19;99986.09;;;-16.09;75.01
60089;BME280;45961;53.574;55.878;2024-03-08T03:31:22;99986.22;;;-16.08;74.90
60089;BME280;45961;53.574;55.878;2024-03-08T03:32:26;99984.06;;;-15.98;75.07
60089;BME280;45961;53.574;55.878;2024-03-08T03:33:27;99977.97;;;-15.93;75.20
60089;BME280;45961;53.574;55.878;2024-03-08T03:34:28;99981.13;;;-15.86;75.10
60089;BME280;45961;53.574;55.878;2024-03-08T03:35:35;99979.53;;;-15.86;75.04
60089;BME280;45961;53.574;55.878;2024-03-08T03:36:36;99980.91;;;-15.81;75.22
60089;BME280;45961;53.574;55.878;2024-03-08T03:37:38;99977.88;;;-15.78;75.17
60089;BME280;45961;53.574;55.878;2024-03-08T03:38:43;99983.72;;;-15.78;75.08
60089;BME280;45961;53.574;55.878;2024-03-08T03:39:44;99979.25;;;-15.73;75.10
60089;BME280;45961;53.574;55.878;2024-03-08T03:40:54;99973.66;;;-15.63;75.16
60089;BME280;45961;53.574;55.878;2024-03-08T03:41:58;99977.44;;;-15.67;75.14
60089;BME280;45961;53.574;55.878;2024-03-08T03:43:01;99976.63;;;-15.59;75.08
60089;BME280;45961;53.574;55.878;2024-03-08T03:44:03;99973.81;;;-15.62;74.94
60089;BME280;45961;53.574;55.878;2024-03-08T03:45:05;99971.81;;;-15.57;74.87
60089;BME280;45961;53.574;55.878;2024-03-08T03:46:06;99971.56;;;-15.52;74.84
60089;BME280;45961;53.574;55.878;2024-03-08T03:47:08;99968.13;;;-15.61;74.67
60089;BME280;45961;53.574;55.878;2024-03-08T03:48:09;99970.19;;;-15.57;74.55
60089;BME280;45961;53.574;55.878;2024-03-08T03:49:10;99977.50;;;-15.58;74.68
60089;BME280;45961;53.574;55.878;2024-03-08T03:50:12;99967.91;;;-15.55;74.70
60089;BME280;45961;53.574;55.878;2024-03-08T03:51:13;99968.19;;;-15.52;74.58
60089;BME280;45961;53.574;55.878;2024-03-08T03:52:15;99969.75;;;-15.46;74.77
60089;BME280;45961;53.574;55.878;2024-03-08T03:53:22;99964.78;;;-15.46;74.55
60089;BME280;45961;53.574;55.878;2024-03-08T03:54:23;99967.50;;;-15.35;74.77
60089;BME280;45961;53.574;55.878;2024-03-08T03:55:28;99966.63;;;-15.36;74.55
60089;BME280;45961;53.574;55.878;2024-03-08T03:56:29;99959.50;;;-15.49;74.39
60089;BME280;45961;53.574;55.878;2024-03-08T03:57:31;99953.25;;;-15.29;74.39
60089;BME280;45961;53.574;55.878;2024-03-08T03:58:31;99951.66;;;-15.29;74.23
60089;BME280;45961;53.574;55.878;2024-03-08T03:59:32;99965.00;;;-15.35;74.15
60089;BME280;45961;53.574;55.878;2024-03-08T04:00:33;99956.88;;;-15.34;74.07
60089;BME280;45961;53.574;55.878;2024-03-08T04:01:41;99955.75;;;-15.29;74.13
60089;BME280;45961;53.574;55.878;2024-03-08T04:02:42;99952.53;;;-15.28;74.11
60089;BME280;45961;53.574;55.878;2024-03-08T04:03:43;99952.47;;;-15.21;74.12
60089;BME280;45961;53.574;55.878;2024-03-08T04:04:45;99954.22;;;-15.20;74.02
60089;BME280;45961;53.574;55.878;2024-03-08T04:05:46;99958.31;;;-15.21;74.24
60089;BME280;45961;53.574;55.878;2024-03-08T04:06:47;99956.22;;;-15.25;73.91
60089;BME280;45961;53.574;55.878;2024-03-08T04:07:51;99954.81;;;-15.23;73.89
60089;BME280;45961;53.574;55.878;2024-03-08T04:08:55;99947.97;;;-15.01;73.96
60089;BME280;45961;53.574;55.878;2024-03-08T04:09:55;99941.72;;;-14.97;73.72
60089;BME280;45961;53.574;55.878;2024-03-08T04:11:02;99941.47;;;-15.07;73.44
60089;BME280;45961;53.574;55.878;2024-03-08T04:12:04;99941.41;;;-15.00;73.73
60089;BME280;45961;53.574;55.878;2024-03-08T04:13:05;99943.75;;;-15.02;73.64
60089;BME280;45961;53.574;55.878;2024-03-08T04:14:06;99948.16;;;-15.15;73.75
60089;BME280;45961;53.574;55.878;2024-03-08T04:15:08;99946.06;;;-15.19;73.81
60089;BME280;45961;53.574;55.878;2024-03-08T04:16:11;99946.28;;;-15.09;73.87
60089;BME280;45961;53.574;55.878;2024-03-08T04:17:12;99946.69;;;-15.13;73.71
60089;BME280;45961;53.574;55.878;2024-03-08T04:18:13;99946.94;;;-15.03;73.82
60089;BME280;45961;53.574;55.878;2024-03-08T04:19:14;99938.69;;;-14.95;73.79
60089;BME280;45961;53.574;55.878;2024-03-08T04:20:16;99942.28;;;-15.00;73.71
60089;BME280;45961;53.574;55.878;2024-03-08T04:21:17;99935.81;;;-14.90;73.69
60089;BME280;45961;53.574;55.878;2024-03-08T04:22:21;99932.84;;;-14.95;73.54
60089;BME280;45961;53.574;55.878;2024-03-08T04:23:21;99940.03;;;-14.89;73.47
60089;BME280;45961;53.574;55.878;2024-03-08T04:24:22;99930.00;;;-14.66;73.35
60089;BME280;45961;53.574;55.878;2024-03-08T04:25:23;99919.41;;;-14.73;73.35
60089;BME280;45961;53.574;55.878;2024-03-08T04:26:24;99925.47;;;-14.86;73.24
60089;BME280;45961;53.574;55.878;2024-03-08T04:27:26;99931.84;;;-14.88;73.16
60089;BME280;45961;53.574;55.878;2024-03-08T04:28:27;99928.38;;;-14.66;73.24
60089;BME280;45961;53.574;55.878;2024-03-08T04:29:27;99924.03;;;-14.60;73.24
60089;BME280;45961;53.574;55.878;2024-03-08T04:30:28;99922.25;;;-14.61;73.14
60089;BME280;45961;53.574;55.878;2024-03-08T04:31:30;99916.91;;;-14.48;73.34
60089;BME280;45961;53.574;55.878;2024-03-08T04:32:31;99917.34;;;-14.44;73.16
60089;BME280;45961;53.574;55.878;2024-03-08T04:33:32;99913.44;;;-14.41;73.18
60089;BME280;45961;53.574;55.878;2024-03-08T04:34:36;99919.69;;;-14.45;73.11
60089;BME280;45961;53.574;55.878;2024-03-08T04:35:39;99911.38;;;-14.46;73.36
60089;BME280;45961;53.574;55.878;2024-03-08T04:36:40;99909.91;;;-14.44;73.42
60089;BME280;45961;53.574;55.878;2024-03-08T04:37:41;99917.69;;;-14.40;73.45
60089;BME280;45961;53.574;55.878;2024-03-08T04:38:42;99917.53;;;-14.42;73.46
60089;BME280;45961;53.574;55.878;2024-03-08T04:39:42;99913.91;;;-14.37;73.80
60089;BME280;45961;53.574;55.878;2024-03-08T04:40:43;99906.66;;;-14.27;73.81
60089;BME280;45961;53.574;55.878;2024-03-08T04:41:44;99912.09;;;-14.22;73.91
60089;BME280;45961;53.574;55.878;2024-03-08T04:42:45;99915.47;;;-14.13;74.09
60089;BME280;45961;53.574;55.878;2024-03-08T04:43:46;99904.72;;;-13.96;74.02
60089;BME280;45961;53.574;55.878;2024-03-08T04:44:47;99907.50;;;-14.02;73.93
60089;BME280;45961;53.574;55.878;2024-03-08T04:45:48;99900.06;;;-13.84;73.87
60089;BME280;45961;53.574;55.878;2024-03-08T04:46:49;99896.84;;;-13.83;73.65
60089;BME280;45961;53.574;55.878;2024-03-08T04:47:50;99894.25;;;-13.68;73.59
60089;BME280;45961;53.574;55.878;2024-03-08T04:48:53;99898.09;;;-13.62;73.46
60089;BME280;45961;53.574;55.878;2024-03-08T04:49:53;99896.16;;;-13.74;73.39
60089;BME280;45961;53.574;55.878;2024-03-08T04:50:55;99909.72;;;-13.87;73.37
60089;BME280;45961;53.574;55.878;2024-03-08T04:51:56;99897.78;;;-13.74;73.39
60089;BME280;45961;53.574;55.878;2024-03-08T04:52:58;99894.00;;;-13.71;73.45
60089;BME280;45961;53.574;55.878;2024-03-08T04:53:58;99894.88;;;-13.70;73.49
60089;BME280;45961;53.574;55.878;2024-03-08T04:55:00;99890.34;;;-13.57;73.50
60089;BME280;45961;53.574;55.878;2024-03-08T04:56:00;99894.88;;;-13.61;73.52
60089;BME280;45961;53.574;55.878;2024-03-08T04:57:07;99891.66;;;-13.52;73.62
60089;BME280;45961;53.574;55.878;2024-03-08T04:58:08;99896.50;;;-13.45;73.57
60089;BME280;45961;53.574;55.878;2024-03-08T04:59:08;99891.84;;;-13.33;73.79
60089;BME280;45961;53.574;55.878;2024-03-08T05:00:09;99888.47;;;-13.25;73.72
60089;BME280;45961;53.574;55.878;2024-03-08T05:01:11;99891.97;;;-13.23;73.78
60089;BME280;45961;53.574;55.878;2024-03-08T05:02:12;99884.34;;;-13.07;73.70
60089;BME280;45961;53.574;55.878;2024-03-08T05:03:13;99879.22;;;-13.08;73.70
60089;BME280;45961;53.574;55.878;2024-03-08T05:04:14;99880.81;;;-12.91;73.85
60089;BME280;45961;53.574;55.878;2024-03-08T05:05:15;99880.78;;;-12.74;73.83
60089;BME280;45961;53.574;55.878;2024-03-08T05:06:16;99880.94;;;-12.64;73.62
60089;BME280;45961;53.574;55.878;2024-03-08T05:07:17;99879.75;;;-12.68;73.65
60089;BME280;45961;53.574;55.878;2024-03-08T05:08:19;99874.34;;;-12.72;73.77
60089;BME280;45961;53.574;55.878;2024-03-08T05:09:22;99878.41;;;-12.55;73.95
60089;BME280;45961;53.574;55.878;2024-03-08T05:10:23;99875.19;;;-12.54;73.80
60089;BME280;45961;53.574;55.878;2024-03-08T05:11:23;99879.59;;;-12.52;73.87
60089;BME280;45961;53.574;55.878;2024-03-08T05:12:24;99872.25;;;-12.41;73.90
60089;BME280;45961;53.574;55.878;2024-03-08T05:13:25;99877.22;;;-12.41;73.96
60089;BME280;45961;53.574;55.878;2024-03-08T05:14:27;99868.38;;;-12.29;74.03